Time;durP1;ratioP1;P1;durP2;ratioP2;P2;SDS_P1;SDS_P2;PMS_P1;PMS_P2;Temp;Humidity;BMP_temperature;BMP_pressure;BME280_temperature;BME280_humidity;BME280_pressure;Samples;Min_cycle;Max_cycle;Signal;HPM_P1;HPM_P2
2022/05/13 00:02:16;;;;;;;27.30;5.90;;;;;;;14.89;49.98;99178.17;25115;1315;3026884;-69
2022/05/13 00:04:45;;;;;;;14.00;4.30;;;;;;;14.95;49.85;99181.98;25058;1315;3057477;-69
2022/05/13 00:07:15;;;;;;;14.90;5.20;;;;;;;14.90;50.28;99197.72;25124;1315;3026610;-69
2022/05/13 00:09:56;;;;;;;15.10;5.70;;;;;;;14.82;50.52;99194.98;25140;1315;3026318;-68
2022/05/13 00:12:26;;;;;;;22.10;6.00;;;;;;;14.86;50.59;99195.52;25025;1315;3058614;-67
2022/05/13 00:14:56;;;;;;;15.20;5.50;;;;;;;14.80;50.77;99213.52;25108;1315;3026907;-65
2022/05/13 00:17:25;;;;;;;14.80;5.20;;;;;;;14.88;50.89;99206.37;25148;1315;3026725;-65
2022/05/13 00:19:54;;;;;;;18.20;6.30;;;;;;;14.85;50.84;99205.02;25084;1315;3058040;-69
2022/05/13 00:22:23;;;;;;;17.00;5.90;;;;;;;14.82;50.81;99190.80;25147;1315;3027408;-65
2022/05/13 00:24:54;;;;;;;23.50;5.60;;;;;;;14.67;51.73;99188.49;25104;1315;3026217;-71
2022/05/13 00:27:23;;;;;;;14.50;6.20;;;;;;;14.72;51.48;99190.38;25110;1316;3026493;-66
2022/05/13 00:29:52;;;;;;;19.70;5.90;;;;;;;14.68;51.76;99191.08;25116;1316;3026777;-71
2022/05/13 00:32:22;;;;;;;19.10;6.30;;;;;;;14.62;52.22;99188.65;25103;1315;3052651;-65
2022/05/13 00:34:51;;;;;;;15.80;5.70;;;;;;;14.70;51.78;99186.16;25094;1315;3026841;-65
2022/05/13 00:37:20;;;;;;;15.30;5.80;;;;;;;14.59;52.39;99183.13;25110;1315;3028684;-71
2022/05/13 00:39:49;;;;;;;13.00;5.50;;;;;;;14.57;52.60;99193.00;25154;1315;3028210;-68
2022/05/13 00:42:19;;;;;;;15.90;5.80;;;;;;;14.64;52.10;99200.54;25103;1315;3050632;-68
2022/05/13 00:44:48;;;;;;;16.20;5.30;;;;;;;14.64;52.39;99206.85;25041;1316;3026632;-70
2022/05/13 00:47:19;;;;;;;23.40;6.40;;;;;;;14.59;52.54;99199.52;25080;1315;3026728;-70
2022/05/13 00:49:48;;;;;;;16.50;5.50;;;;;;;14.56;52.86;99201.55;25105;1316;3050335;-70
2022/05/13 00:52:17;;;;;;;19.20;6.00;;;;;;;14.57;52.69;99205.98;25055;1315;3026062;-67
2022/05/13 00:54:46;;;;;;;18.00;6.00;;;;;;;14.60;52.44;99201.57;25099;1315;3054993;-67
2022/05/13 00:57:15;;;;;;;24.40;6.00;;;;;;;14.51;52.72;99213.16;25029;1315;3026920;-70
2022/05/13 00:59:44;;;;;;;9.30;5.10;;;;;;;14.51;52.88;99220.62;25093;1315;3047945;-71
2022/05/13 01:02:15;;;;;;;18.90;5.10;;;;;;;14.62;52.74;99214.25;25111;1315;3026991;-66
2022/05/13 01:04:45;;;;;;;26.10;5.80;;;;;;;14.56;52.90;99209.41;25086;1315;3026147;-65
2022/05/13 01:07:17;;;;;;;19.70;5.80;;;;;;;14.58;52.98;99200.30;25050;1316;3026683;-68
2022/05/13 01:09:52;;;;;;;17.50;5.60;;;;;;;14.58;53.22;99196.80;25079;1315;3026493;-70
2022/05/13 01:12:23;;;;;;;17.20;4.80;;;;;;;14.52;52.93;99185.77;25178;1315;3054608;-71
2022/05/13 01:14:55;;;;;;;15.60;5.50;;;;;;;14.58;53.24;99184.41;25053;1316;3026333;-68
2022/05/13 01:20:17;;;;;;;19.30;5.70;;;;;;;14.45;53.62;99186.76;25021;1315;3053529;-65
2022/05/13 01:22:49;;;;;;;14.10;6.20;;;;;;;14.43;54.02;99167.80;25047;1315;3026707;-67
2022/05/13 01:25:20;;;;;;;22.50;6.20;;;;;;;14.40;54.00;99154.50;25064;1315;3028361;-70
2022/05/13 01:27:49;;;;;;;17.50;5.80;;;;;;;14.38;54.41;99159.41;25073;1315;3026679;-64
2022/05/13 01:30:24;;;;;;;19.40;5.80;;;;;;;14.44;54.21;99155.56;25071;1318;3026660;-64
2022/05/13 01:32:54;;;;;;;20.40;5.40;;;;;;;14.44;54.32;99144.50;25094;1315;3051492;-63
2022/05/13 01:35:23;;;;;;;20.60;6.40;;;;;;;14.47;54.03;99143.90;24999;1316;3026566;-70
2022/05/13 01:37:52;;;;;;;22.60;6.30;;;;;;;14.42;54.45;99158.73;25109;1316;3026726;-63
2022/05/13 01:40:21;;;;;;;18.60;5.80;;;;;;;14.40;54.50;99177.40;25011;1315;3053281;-64
2022/05/13 01:42:50;;;;;;;17.90;5.30;;;;;;;14.30;55.03;99191.95;25069;1315;3026631;-63
2022/05/13 01:45:21;;;;;;;17.30;6.20;;;;;;;14.33;55.06;99187.30;25106;1315;3055682;-71
2022/05/13 01:47:50;;;;;;;16.10;5.10;;;;;;;14.40;55.07;99192.41;25090;1315;3026423;-67
2022/05/13 01:50:22;;;;;;;19.80;6.10;;;;;;;14.34;55.42;99201.73;25081;1316;3051237;-72
2022/05/13 01:52:53;;;;;;;17.50;5.40;;;;;;;14.34;55.50;99216.67;25135;1315;3026261;-65
2022/05/13 01:55:22;;;;;;;19.50;6.50;;;;;;;14.23;55.99;99220.70;25098;1315;3027232;-69
2022/05/13 01:57:52;;;;;;;18.30;6.00;;;;;;;14.18;56.66;99217.25;25084;1315;3027023;-71
2022/05/13 02:00:22;;;;;;;19.20;6.50;;;;;;;14.17;56.83;99213.98;25041;1316;3055146;-66
2022/05/13 02:05:39;;;;;;;24.50;7.30;;;;;;;14.14;57.25;99195.52;25018;1316;3071537;-72
2022/05/13 02:08:09;;;;;;;19.90;6.20;;;;;;;14.10;57.39;99190.77;25038;1315;3026597;-73
2022/05/13 02:10:38;;;;;;;17.80;5.40;;;;;;;14.04;57.99;99172.86;25086;1315;3026850;-70
2022/05/13 02:13:07;;;;;;;25.10;6.50;;;;;;;14.02;57.94;99167.40;25124;1315;3026385;-63
2022/05/13 02:15:38;;;;;;;15.50;5.20;;;;;;;14.06;58.03;99169.27;25386;1315;3051871;-60
2022/05/13 02:18:08;;;;;;;21.80;6.10;;;;;;;14.10;57.55;99159.52;25571;1315;3028034;-59
2022/05/13 02:20:38;;;;;;;27.90;6.30;;;;;;;14.08;57.98;99164.67;25472;1315;3026689;-60
2022/05/13 02:23:07;;;;;;;18.90;6.00;;;;;;;14.07;58.07;99163.02;25424;1315;3027522;-67
2022/05/13 02:25:36;;;;;;;23.50;5.90;;;;;;;14.03;58.59;99164.14;25126;1315;3026601;-69
2022/05/13 02:28:06;;;;;;;22.40;6.20;;;;;;;14.08;58.10;99169.25;25118;1315;3028305;-65
2022/05/13 02:30:35;;;;;;;19.00;6.40;;;;;;;14.01;58.52;99158.70;25084;1315;3026808;-72
2022/05/13 02:33:04;;;;;;;21.90;7.00;;;;;;;14.07;58.62;99161.79;25078;1315;3051511;-68
2022/05/13 02:35:33;;;;;;;20.10;6.40;;;;;;;13.97;59.09;99157.41;25045;1316;3026101;-63
2022/05/13 02:38:02;;;;;;;24.40;7.20;;;;;;;13.94;59.34;99150.98;25035;1315;3026172;-66
2022/05/13 02:43:19;;;;;;;21.70;7.00;;;;;;;13.81;60.35;99157.50;25028;1315;3055841;-65
2022/05/13 02:45:48;;;;;;;21.40;7.10;;;;;;;13.75;60.56;99148.23;25100;1316;3026814;-66
2022/05/13 02:48:17;;;;;;;19.10;6.80;;;;;;;13.72;60.76;99145.13;25022;1315;3048377;-69
2022/05/13 02:50:47;;;;;;;23.40;7.60;;;;;;;13.80;60.40;99150.14;25087;1315;3026601;-68
2022/05/13 02:53:16;;;;;;;20.00;6.40;;;;;;;13.82;60.41;99167.23;25103;1316;3057847;-69
2022/05/13 02:55:45;;;;;;;18.90;6.70;;;;;;;13.88;60.31;99162.20;25104;1316;3028000;-70
2022/05/13 02:58:14;;;;;;;25.60;7.90;;;;;;;13.95;60.20;99164.13;25092;1315;3026853;-68
2022/05/13 03:00:44;;;;;;;20.30;6.70;;;;;;;13.91;60.44;99180.48;25136;1315;3058402;-70
2022/05/13 03:03:13;;;;;;;18.80;5.90;;;;;;;13.97;59.96;99189.66;25014;1315;3029891;-69
2022/05/13 03:05:42;;;;;;;24.50;7.20;;;;;;;14.01;60.15;99181.45;25063;1315;3054432;-69
2022/05/13 03:08:11;;;;;;;22.50;6.70;;;;;;;14.05;60.09;99191.69;25055;1315;3027145;-65
2022/05/13 03:10:40;;;;;;;21.20;6.20;;;;;;;14.00;60.50;99202.08;25054;1316;3051988;-70
2022/05/13 03:13:09;;;;;;;24.50;7.70;;;;;;;13.98;60.41;99217.55;25088;1315;3026481;-65
2022/05/13 03:15:39;;;;;;;23.50;7.40;;;;;;;13.93;60.82;99204.98;25034;1316;3050235;-69
2022/05/13 03:18:07;;;;;;;24.50;7.30;;;;;;;13.86;61.09;99208.45;25088;1316;3026103;-62
2022/05/13 03:20:37;;;;;;;14.20;6.10;;;;;;;13.90;61.24;99204.10;25089;1315;3071034;-71
2022/05/13 03:23:06;;;;;;;22.50;7.00;;;;;;;13.95;60.81;99203.70;25056;1315;3026815;-69
2022/05/13 03:25:34;;;;;;;23.40;7.00;;;;;;;13.92;61.20;99207.30;25073;1316;3053522;-70
2022/05/13 03:28:04;;;;;;;22.90;6.80;;;;;;;13.85;61.41;99203.27;25076;1315;3026329;-67
2022/05/13 03:30:33;;;;;;;28.30;7.70;;;;;;;13.85;61.80;99205.39;25046;1315;3053737;-64
2022/05/13 03:33:02;;;;;;;21.80;7.00;;;;;;;13.78;61.91;99212.11;25104;1315;3026493;-70
2022/05/13 03:35:32;;;;;;;18.50;6.50;;;;;;;13.90;61.60;99219.07;25068;1315;3049906;-67
2022/05/13 03:38:00;;;;;;;20.70;6.70;;;;;;;13.85;61.97;99219.84;25059;1315;3026537;-68
2022/05/13 03:40:30;;;;;;;18.90;7.80;;;;;;;13.86;62.16;99224.64;25080;1315;3058504;-62
2022/05/13 03:42:59;;;;;;;17.70;6.70;;;;;;;13.93;62.07;99226.56;25020;1315;3026442;-65
2022/05/13 03:45:30;;;;;;;16.10;6.30;;;;;;;13.95;62.17;99228.86;25110;1315;3027147;-69
2022/05/13 03:48:00;;;;;;;25.70;7.90;;;;;;;14.08;61.66;99233.34;25117;1315;3056405;-66
2022/05/13 03:50:29;;;;;;;30.30;7.20;;;;;;;14.17;61.56;99234.40;25027;1314;3026353;-66
2022/05/13 03:52:59;;;;;;;16.70;7.80;;;;;;;14.14;61.91;99233.04;25069;1315;3026143;-70
2022/05/13 03:55:28;;;;;;;14.00;7.50;;;;;;;14.19;61.82;99224.73;25085;1315;3026497;-66
2022/05/13 03:57:57;;;;;;;22.20;7.70;;;;;;;14.24;61.81;99226.23;25075;1315;3026883;-68
2022/05/13 04:00:26;;;;;;;28.50;8.00;;;;;;;14.31;61.63;99235.92;25054;1316;3054592;-64
2022/05/13 04:02:55;;;;;;;19.90;7.20;;;;;;;14.35;61.81;99241.58;25099;1315;3026033;-70
2022/05/13 04:11:00;;;;;;;20.20;7.50;;;;;;;14.57;61.70;99253.44;25103;1315;3054480;-65
2022/05/13 04:16:18;;;;;;;19.90;6.50;;;;;;;14.82;60.77;99260.13;25035;1315;3052247;-68
2022/05/13 04:18:47;;;;;;;18.30;6.90;;;;;;;14.92;60.50;99262.77;25064;1315;3026265;-67
2022/05/13 04:21:25;;;;;;;22.70;7.10;;;;;;;15.05;60.45;99272.99;25056;1315;3026470;-65
2022/05/13 04:23:56;;;;;;;20.60;7.50;;;;;;;15.18;60.12;99276.86;25039;1316;3051135;-68
2022/05/13 04:26:25;;;;;;;27.00;6.50;;;;;;;15.29;60.15;99280.39;25059;1315;3026312;-67
2022/05/13 04:28:55;;;;;;;26.10;7.10;;;;;;;15.41;59.53;99278.13;25030;1315;3026530;-72
2022/05/13 04:31:29;;;;;;;17.70;6.10;;;;;;;15.53;59.89;99279.10;25133;1316;3027988;-64
2022/05/13 04:33:58;;;;;;;21.50;7.10;;;;;;;15.58;59.55;99279.77;25111;1315;3052312;-66
2022/05/13 04:36:27;;;;;;;15.70;6.70;;;;;;;15.73;59.21;99277.95;25027;1316;3026484;-66
2022/05/13 04:38:56;;;;;;;21.10;6.80;;;;;;;15.88;58.63;99279.91;25092;1315;3026426;-68
2022/05/13 04:44:15;;;;;;;21.60;6.80;;;;;;;16.07;58.32;99276.29;25074;1315;3054490;-65
2022/05/13 04:46:44;;;;;;;23.90;6.50;;;;;;;16.10;58.33;99283.80;25070;1315;3027654;-67
2022/05/13 04:49:13;;;;;;;24.90;8.40;;;;;;;16.10;58.25;99279.04;25081;1315;3026637;-63
2022/05/13 04:51:42;;;;;;;20.40;8.40;;;;;;;16.20;58.08;99279.39;25060;1315;3053992;-63
2022/05/13 04:54:11;;;;;;;34.60;12.10;;;;;;;16.36;57.74;99274.90;25051;1315;3027675;-73
2022/05/13 04:56:41;;;;;;;21.60;9.10;;;;;;;16.46;57.69;99277.89;25066;1315;3053872;-69
2022/05/13 04:59:10;;;;;;;32.50;10.10;;;;;;;16.58;57.51;99278.93;25086;1315;3026623;-70
2022/05/13 05:01:43;;;;;;;36.60;9.60;;;;;;;16.64;57.37;99275.61;25034;1315;3051469;-69
2022/05/13 05:04:12;;;;;;;24.60;8.90;;;;;;;16.68;57.24;99277.55;25099;1315;3026753;-65
2022/05/13 05:06:41;;;;;;;27.40;10.40;;;;;;;16.76;57.06;99284.22;25038;1316;3070663;-68
2022/05/13 05:09:10;;;;;;;43.00;9.80;;;;;;;16.81;56.99;99283.96;25110;1315;3027002;-66
2022/05/13 05:11:39;;;;;;;36.40;11.50;;;;;;;16.84;56.97;99282.83;25040;1316;3053683;-67
2022/05/13 05:14:09;;;;;;;29.20;10.00;;;;;;;16.97;56.73;99287.04;25123;1315;3026191;-64
2022/05/13 05:16:38;;;;;;;35.10;12.60;;;;;;;17.05;56.76;99296.70;25095;1316;3026516;-75
2022/05/13 05:19:07;;;;;;;42.50;12.50;;;;;;;17.08;56.59;99297.18;25116;1314;3026169;-72
2022/05/13 05:21:36;;;;;;;42.50;12.80;;;;;;;17.13;56.52;99294.45;25078;1315;3070700;-69
2022/05/13 05:24:05;;;;;;;43.80;13.80;;;;;;;17.20;56.57;99290.23;25109;1316;3025985;-68
2022/05/13 05:26:34;;;;;;;42.70;14.50;;;;;;;17.27;56.56;99288.52;25058;1315;3052665;-66
2022/05/13 05:29:03;;;;;;;48.70;15.70;;;;;;;17.36;56.58;99287.05;25095;1315;3026635;-72
2022/05/13 05:31:33;;;;;;;52.30;16.30;;;;;;;17.41;56.59;99289.91;25066;1315;3054294;-67
2022/05/13 05:34:02;;;;;;;45.60;14.10;;;;;;;17.54;56.21;99292.80;25102;1315;3027046;-65
2022/05/13 05:36:32;;;;;;;54.60;18.20;;;;;;;17.62;56.08;99298.23;25122;1315;3049931;-67
2022/05/13 05:39:01;;;;;;;62.50;18.80;;;;;;;17.66;56.29;99306.92;25167;1316;3026638;-63
2022/05/13 05:41:30;;;;;;;62.00;20.60;;;;;;;17.69;56.39;99304.02;25085;1315;3056224;-70
2022/05/13 05:43:59;;;;;;;72.80;21.10;;;;;;;17.74;56.31;99297.52;25056;1316;3026494;-64
2022/05/13 05:46:28;;;;;;;74.70;22.60;;;;;;;17.86;55.92;99307.16;25090;1316;3026750;-64
2022/05/13 05:48:58;;;;;;;80.60;23.70;;;;;;;17.91;55.54;99305.54;25087;1315;3057861;-70
2022/05/13 05:51:27;;;;;;;62.70;23.10;;;;;;;17.97;55.47;99306.08;25043;1315;3028517;-65
2022/05/13 05:59:31;;;;;;;68.90;21.60;;;;;;;18.18;55.17;99316.84;25079;1319;3052355;-70
2022/05/13 06:02:00;;;;;;;63.20;21.60;;;;;;;18.23;54.76;99321.54;25095;1314;3026375;-70
2022/05/13 06:04:29;;;;;;;61.40;21.30;;;;;;;18.42;54.14;99316.52;25056;1315;3057992;-69
2022/05/13 06:06:59;;;;;;;54.10;19.20;;;;;;;18.64;53.69;99316.56;25023;1316;3028641;-65
2022/05/13 06:09:28;;;;;;;74.10;20.00;;;;;;;18.80;53.25;99314.66;25119;1315;3026489;-66
2022/05/13 06:11:57;;;;;;;58.50;19.40;;;;;;;18.81;53.23;99319.88;25073;1316;3026294;-71
2022/05/13 06:14:27;;;;;;;72.20;17.50;;;;;;;18.71;52.80;99322.56;25108;1315;3051744;-72
2022/05/13 06:16:56;;;;;;;37.90;14.10;;;;;;;18.61;52.90;99326.94;25103;1316;3027558;-68
2022/05/13 06:19:26;;;;;;;40.20;14.20;;;;;;;18.55;53.03;99326.73;25152;1316;3026566;-70
2022/05/13 06:21:55;;;;;;;50.50;14.50;;;;;;;18.54;53.19;99324.17;25057;1315;3026755;-70
2022/05/13 06:24:24;;;;;;;36.10;13.20;;;;;;;18.64;52.81;99321.12;25138;1316;3026310;-66
2022/05/13 06:26:54;;;;;;;36.10;13.60;;;;;;;18.65;52.29;99324.27;25105;1315;3051302;-70
2022/05/13 06:29:24;;;;;;;50.90;15.60;;;;;;;18.82;52.26;99327.20;25144;1315;3026364;-67
2022/05/13 06:31:53;;;;;;;57.50;13.60;;;;;;;18.83;51.64;99330.85;25112;1316;3052987;-70
2022/05/13 06:34:22;;;;;;;38.20;12.50;;;;;;;18.77;51.56;99338.89;25080;1316;3026640;-75
2022/05/13 06:36:51;;;;;;;47.10;11.10;;;;;;;18.82;51.36;99332.55;25071;1315;3026995;-67
2022/05/13 06:39:20;;;;;;;51.80;12.80;;;;;;;18.90;51.19;99330.91;25140;1315;3050934;-68
2022/05/13 06:41:49;;;;;;;37.70;10.80;;;;;;;18.97;51.05;99324.20;25146;1315;3026308;-68
2022/05/13 06:44:18;;;;;;;25.90;10.30;;;;;;;19.04;50.94;99319.55;25118;1318;3049637;-71
2022/05/13 06:46:47;;;;;;;36.30;11.70;;;;;;;19.06;50.45;99321.52;25103;1316;3026439;-67
2022/05/13 06:49:16;;;;;;;37.30;10.70;;;;;;;19.15;50.30;99319.41;25137;1315;3056803;-67
2022/05/13 06:51:46;;;;;;;32.00;10.10;;;;;;;19.26;49.96;99318.32;25119;1315;3026243;-70
2022/05/13 06:54:19;;;;;;;32.30;12.40;;;;;;;19.48;49.68;99312.61;25144;1315;3028079;-71
2022/05/13 06:56:54;;;;;;;29.30;11.10;;;;;;;19.60;49.17;99316.02;25132;1316;3029050;-70
2022/05/13 06:59:23;;;;;;;32.70;10.20;;;;;;;19.76;48.74;99307.98;25119;1315;3052444;-68
2022/05/13 07:01:52;;;;;;;37.70;10.90;;;;;;;19.97;48.69;99295.22;25156;1315;3026348;-72
2022/05/13 07:04:21;;;;;;;30.90;9.70;;;;;;;20.14;47.87;99296.84;25156;1315;3057821;-75
2022/05/13 07:06:51;;;;;;;21.20;9.50;;;;;;;20.28;46.91;99290.80;25098;1315;3026382;-67
2022/05/13 07:09:20;;;;;;;36.80;9.80;;;;;;;20.43;47.11;99288.38;25140;1315;3026872;-65
2022/05/13 07:11:50;;;;;;;22.80;8.90;;;;;;;20.60;46.80;99292.63;25216;1315;3056435;-65
2022/05/13 07:14:21;;;;;;;34.70;8.80;;;;;;;20.73;45.80;99296.39;25542;1315;3027758;-62
2022/05/13 07:16:50;;;;;;;25.10;8.00;;;;;;;20.68;44.04;99301.23;25594;1316;3026560;-63
2022/05/13 07:19:19;;;;;;;22.70;7.20;;;;;;;20.55;44.25;99293.81;25595;1314;3027734;-63
2022/05/13 07:21:48;;;;;;;31.20;8.10;;;;;;;20.76;44.50;99293.44;25318;1316;3048839;-65
2022/05/13 07:24:17;;;;;;;20.10;7.70;;;;;;;20.95;43.88;99292.66;25117;1316;3026931;-69
2022/05/13 07:26:46;;;;;;;26.80;7.60;;;;;;;21.02;43.24;99290.91;25128;1315;3026255;-72
2022/05/13 07:29:16;;;;;;;22.90;7.50;;;;;;;21.13;43.10;99291.99;25152;1315;3051942;-63
2022/05/13 07:31:46;;;;;;;39.10;8.90;;;;;;;21.04;43.04;99299.03;25097;1314;3026784;-67
2022/05/13 07:34:15;;;;;;;27.60;7.30;;;;;;;21.07;43.16;99301.54;25058;1315;3026550;-68
2022/05/13 07:36:46;;;;;;;24.30;7.30;;;;;;;21.25;43.21;99292.50;25078;1316;3026485;-66
2022/05/13 07:42:03;;;;;;;20.00;6.90;;;;;;;21.26;42.08;99298.98;25056;1316;3054758;-61
2022/05/13 07:44:32;;;;;;;34.60;7.00;;;;;;;21.26;42.44;99295.97;25103;1314;3026529;-65
2022/05/13 07:47:02;;;;;;;27.20;6.50;;;;;;;21.31;42.48;99301.09;25158;1315;3026614;-64
2022/05/13 07:49:32;;;;;;;22.30;6.40;;;;;;;21.52;42.41;99299.29;25078;1316;3054293;-67
2022/05/13 07:52:01;;;;;;;28.70;7.50;;;;;;;21.73;42.13;99301.89;25037;1316;3026641;-72
2022/05/13 07:54:30;;;;;;;31.00;8.10;;;;;;;21.89;41.69;99290.77;25126;1315;3026944;-71
2022/05/13 07:56:59;;;;;;;28.80;7.20;;;;;;;22.03;41.43;99286.56;25044;1316;3053839;-71
2022/05/13 07:59:28;;;;;;;30.10;7.40;;;;;;;22.17;42.00;99295.83;25143;1316;3026233;-64
2022/05/13 08:01:57;;;;;;;33.00;9.30;;;;;;;22.20;41.72;99300.48;25044;1315;3048853;-63
2022/05/13 08:04:26;;;;;;;27.90;8.00;;;;;;;22.20;41.98;99297.66;25107;1316;3026569;-67
2022/05/13 08:06:55;;;;;;;28.70;7.80;;;;;;;22.34;41.78;99289.64;25072;1316;3070321;-68
2022/05/13 08:09:24;;;;;;;25.90;7.90;;;;;;;22.54;41.11;99291.40;25133;1316;3026660;-70
2022/05/13 08:11:53;;;;;;;26.70;5.90;;;;;;;22.64;40.11;99286.45;25033;1315;3053843;-69
2022/05/13 08:14:23;;;;;;;29.00;6.60;;;;;;;22.70;39.91;99283.65;25046;1316;3026044;-62
2022/05/13 08:16:52;;;;;;;26.70;5.80;;;;;;;22.72;39.93;99283.45;25094;1320;3026849;-75
2022/05/13 08:19:21;;;;;;;20.40;6.50;;;;;;;22.76;39.54;99284.55;25034;1315;3050279;-69
2022/05/13 08:21:55;;;;;;;36.70;6.30;;;;;;;22.72;39.10;99284.14;25088;1316;3071434;-73
2022/05/13 08:24:24;;;;;;;30.20;7.30;;;;;;;22.76;38.91;99280.50;25168;1316;3026291;-66
2022/05/13 08:26:54;;;;;;;34.30;8.10;;;;;;;22.99;37.89;99276.41;25060;1316;3050494;-63
2022/05/13 08:29:23;;;;;;;34.50;6.60;;;;;;;23.08;37.84;99273.36;25067;1316;3026293;-70
2022/05/13 08:31:52;;;;;;;43.50;6.30;;;;;;;22.93;36.89;99279.89;25128;1314;3052303;-70
2022/05/13 08:34:21;;;;;;;43.60;10.80;;;;;;;22.93;37.10;99269.22;25061;1316;3026667;-73
2022/05/13 08:36:50;;;;;;;24.90;9.20;;;;;;;22.87;37.53;99267.98;25098;1316;3051989;-68
2022/05/13 08:39:19;;;;;;;54.70;11.40;;;;;;;22.88;37.65;99268.41;25042;1316;3026794;-71
2022/05/13 08:42:35;;;;;;;48.60;12.70;;;;;;;22.75;37.84;99263.44;25096;1316;3026759;-67
2022/05/13 08:45:06;;;;;;;47.80;13.40;;;;;;;22.98;37.67;99263.86;24840;1324;3052715;-71
2022/05/13 08:47:56;;;;;;;60.70;10.40;;;;;;;22.93;37.71;99276.51;24908;1324;3027436;-71
2022/05/13 08:50:34;;;;;;;60.90;11.90;;;;;;;22.97;37.11;99269.61;25047;1316;3052051;-69
2022/05/13 08:53:19;;;;;;;74.70;14.80;;;;;;;22.93;37.31;99270.25;25084;1313;3069759;-75
2022/05/13 08:55:51;;;;;;;67.60;16.10;;;;;;;23.00;37.39;99269.10;25085;1316;3049066;-70
2022/05/13 08:58:32;;;;;;;78.40;17.60;;;;;;;23.14;37.61;99272.40;25117;1316;3026724;-67
2022/05/13 09:01:02;;;;;;;58.00;16.30;;;;;;;23.26;37.17;99274.95;25052;1316;3054976;-67
2022/05/13 09:03:52;;;;;;;53.30;17.20;;;;;;;23.26;37.38;99274.63;25084;1316;3026306;-62
2022/05/13 09:06:43;;;;;;;75.80;17.50;;;;;;;23.22;37.86;99268.03;24606;1315;3704578;-70
2022/05/13 09:09:12;;;;;;;76.80;15.70;;;;;;;23.41;37.26;99274.92;25105;1316;3055692;-69
2022/05/13 09:11:53;;;;;;;49.10;15.40;;;;;;;23.44;37.21;99266.36;25060;1316;3026156;-67
2022/05/13 09:14:28;;;;;;;43.80;13.70;;;;;;;23.69;37.09;99263.95;25102;1316;3069646;-70
2022/05/13 09:17:13;;;;;;;52.40;14.40;;;;;;;23.69;36.96;99266.30;25055;1316;3051324;-66
2022/05/13 09:20:02;;;;;;;53.10;13.80;;;;;;;23.91;36.67;99259.25;25121;1316;3052921;-67
2022/05/13 09:22:39;;;;;;;50.50;13.00;;;;;;;24.09;36.56;99263.80;25065;1316;3054900;-72
2022/05/13 09:25:56;;;;;;;42.80;10.90;;;;;;;24.18;36.00;99262.63;25095;1316;3056833;-71
2022/05/13 09:28:26;;;;;;;39.30;11.10;;;;;;;24.17;35.92;99268.61;25033;1316;3052897;-65
2022/05/13 09:31:08;;;;;;;45.80;10.20;;;;;;;24.23;36.13;99263.85;25094;1319;3026891;-68
2022/05/13 09:33:38;;;;;;;36.60;10.60;;;;;;;24.43;36.23;99260.30;25044;1315;3055196;-64
2022/05/13 09:36:09;;;;;;;37.70;9.80;;;;;;;24.60;35.89;99258.08;25069;1316;3026852;-68
2022/05/13 09:38:44;;;;;;;37.20;9.00;;;;;;;24.32;35.96;99271.84;25010;1319;3026920;-73
2022/05/13 09:41:13;;;;;;;;;;;;;;;24.15;36.25;99264.61;25074;1316;3051774;-63
2022/05/13 09:43:50;;;;;;;45.70;9.10;;;;;;;24.26;36.39;99261.41;25090;1316;3026502;-66
2022/05/13 09:46:23;;;;;;;35.50;7.70;;;;;;;24.54;35.89;99255.31;25042;1316;3055417;-71
2022/05/13 09:48:58;;;;;;;47.90;9.60;;;;;;;24.42;36.03;99257.27;25074;1316;3051289;-71
2022/05/13 09:51:30;;;;;;;32.70;8.10;;;;;;;24.50;36.16;99261.81;25022;1316;3053522;-71
2022/05/13 09:54:12;;;;;;;55.10;10.40;;;;;;;24.61;36.05;99265.81;25119;1316;3026868;-67
2022/05/13 09:56:47;;;;;;;37.50;9.30;;;;;;;24.52;36.21;99265.48;25115;1316;3070095;-67
2022/05/13 09:59:22;;;;;;;36.90;10.20;;;;;;;24.65;36.08;99254.25;25115;1313;3049593;-64
2022/05/13 10:01:51;;;;;;;31.70;9.80;;;;;;;24.78;36.24;99250.89;25061;1313;3052349;-62
2022/05/13 10:04:25;;;;;;;44.20;9.20;;;;;;;24.51;36.54;99259.55;25108;1316;3026520;-68
2022/05/13 10:07:08;;;;;;;;;;;;;;;24.42;36.78;99252.16;25119;1313;3056382;-65
2022/05/13 10:15:37;;;;;;;36.60;9.20;;;;;;;24.68;35.81;99246.77;25057;1315;3051948;-64
2022/05/13 10:18:32;;;;;;;35.80;9.90;;;;;;;24.69;35.70;99242.58;25109;1316;3071098;-66
2022/05/13 10:21:05;;;;;;;34.20;9.10;;;;;;;24.57;35.72;99254.15;25082;1316;3052033;-71
2022/05/13 10:23:52;;;;;;;;;;;;;;;24.45;35.77;99240.88;25106;1316;3052483;-68
2022/05/13 10:26:24;;;;;;;54.20;10.80;;;;;;;24.30;36.18;99245.08;25050;1315;3053574;-68
2022/05/13 10:30:56;;;;;;;39.70;8.90;;;;;;;24.08;37.10;99252.11;31573;1319;3026083;-64
2022/05/13 10:33:50;;;;;;;50.20;10.50;;;;;;;24.25;36.89;99246.20;24908;1319;3053141;-65
2022/05/13 10:36:22;;;;;;;50.50;11.60;;;;;;;24.11;37.29;99246.15;24906;1322;3051860;-69
2022/05/13 10:39:10;;;;;;;50.70;11.10;;;;;;;23.97;38.10;99242.67;24927;1322;3026689;-66
2022/05/13 10:41:47;;;;;;;39.10;12.40;;;;;;;24.13;38.39;99242.66;25017;1319;3051106;-65
2022/05/13 10:44:26;;;;;;;47.60;13.20;;;;;;;24.52;38.04;99236.95;24835;1319;3364209;-66
2022/05/13 10:46:57;;;;;;;47.00;12.70;;;;;;;24.69;37.62;99247.89;25056;1318;3053096;-70
2022/05/13 10:49:31;;;;;;;52.10;12.10;;;;;;;24.65;38.00;99241.48;25143;1316;3026728;-63
2022/05/13 10:52:15;;;;;;;46.20;13.40;;;;;;;24.76;37.96;99241.23;25113;1316;3048182;-63
2022/05/13 10:54:47;;;;;;;;;;;;;;;24.32;38.74;99246.62;25079;1316;3054919;-64
2022/05/13 10:57:19;;;;;;;48.30;12.10;;;;;;;24.41;38.92;99235.96;25110;1316;3026616;-64
2022/05/13 10:59:51;;;;;;;45.50;12.60;;;;;;;24.29;38.82;99241.63;25125;1316;3029483;-64
2022/05/13 11:02:38;;;;;;;43.40;12.90;;;;;;;24.14;38.69;99249.98;25073;1316;3027515;-63
2022/05/13 11:05:32;;;;;;;47.80;14.10;;;;;;;24.06;39.16;99250.49;25182;1315;3053400;-63
2022/05/13 11:08:24;;;;;;;42.60;13.80;;;;;;;23.80;39.79;99253.92;25140;1316;3049869;-63
2022/05/13 11:11:22;;;;;;;66.20;16.20;;;;;;;23.89;39.72;99242.83;25135;1316;3068972;-64
2022/05/13 11:14:20;;;;;;;70.10;12.60;;;;;;;23.94;39.50;99240.65;25085;1315;3051451;-64
2022/05/13 11:16:55;;;;;;;40.00;10.50;;;;;;;23.97;39.10;99253.52;25150;1315;3053761;-64
2022/05/13 11:19:32;;;;;;;43.70;8.60;;;;;;;23.96;38.63;99247.23;25166;1316;3052666;-63
2022/05/13 11:22:21;;;;;;;40.10;9.90;;;;;;;24.04;38.30;99239.42;25049;1315;3058572;-63
2022/05/13 11:28:14;;;;;;;34.50;8.20;;;;;;;24.31;37.83;99260.15;25053;1315;3052900;-64
2022/05/13 11:31:08;;;;;;;33.00;7.60;;;;;;;24.24;38.09;99240.91;25062;1315;3053343;-62
2022/05/13 11:33:50;;;;;;;33.70;7.70;;;;;;;24.47;37.69;99238.83;25040;1316;3068953;-64
2022/05/13 11:36:44;;;;;;;31.70;8.50;;;;;;;24.66;37.14;99243.18;25035;1316;3052412;-64
2022/05/13 11:39:29;;;;;;;45.60;8.80;;;;;;;24.62;36.97;99232.70;25049;1315;3054034;-63
2022/05/13 11:42:18;;;;;;;38.70;8.00;;;;;;;24.67;36.57;99250.26;25073;1316;3055675;-61
2022/05/13 11:45:27;;;;;;;55.40;8.10;;;;;;;24.34;36.41;99243.84;25081;1316;3058061;-62
2022/05/13 11:48:15;;;;;;;31.20;6.90;;;;;;;24.13;35.75;99237.66;25093;1315;3050184;-63
2022/05/13 11:50:44;;;;;;;37.30;8.50;;;;;;;23.98;35.43;99238.21;25132;1315;3055902;-62
2022/05/13 11:53:43;;;;;;;40.30;6.60;;;;;;;23.96;34.83;99246.83;25065;1315;3026485;-60
2022/05/13 11:56:17;;;;;;;31.30;7.10;;;;;;;23.76;34.45;99243.59;25055;1315;3051961;-61
2022/05/13 11:58:50;;;;;;;;;;;;;;;23.69;34.28;99251.64;25264;1316;3052802;-63
2022/05/13 12:01:35;;;;;;;46.30;7.30;;;;;;;23.55;34.42;99253.42;25367;1315;3026682;-62
2022/05/13 12:04:14;;;;;;;40.90;6.60;;;;;;;23.66;34.22;99251.98;25297;1315;3071644;-63
2022/05/13 12:06:48;;;;;;;60.80;6.70;;;;;;;23.70;33.61;99239.70;25089;1316;3048359;-62
2022/05/13 12:09:26;;;;;;;33.80;6.30;;;;;;;23.72;33.51;99236.19;25074;1316;3026591;-64
2022/05/13 12:12:23;;;;;;;45.80;6.50;;;;;;;23.62;33.14;99243.75;25031;1316;3055578;-64